Bookmark and Share
Track history (hours):
 

Seaboard Caribe

Last reported at 2014-Apr-14 14:33 UTC. Time now 2014-Apr-18 20:54 UTC.
Position N 25°33' W 079°40'.

Length 139 m; draft 5.7 m.

Type: Ship. MMSI: 305350000.

NotesDate/timePositionNaut miles runAvg speedWind from/ knotsBaromVisibWave heightAir tempDewpointWater temp
2014-Apr-14 14:33N 25°33' W 079°40'1313.1
2014-Apr-14 13:34N 25°46' W 079°43'2813.9
2014-Apr-14 11:34N 26°06' W 080°05'2 2.2
2014-Apr-14 10:34N 26°04' W 080°07'0 0.0
2014-Apr-14 09:30N 26°04' W 080°07'0 0.0
2014-Apr-14 07:32N 26°04' W 080°07'0 0.0
2014-Apr-14 05:31N 26°04' W 080°07'28 4.1
2014-Apr-13 22:33N 25°46' W 079°43'  
2014-Apr-07 23:26N 21°28' W 076°17'1314.8
2014-Apr-07 22:33N 21°33' W 076°30'1514.9
2014-Apr-07 21:34N 21°39' W 076°45'28414.0
2014-Apr-07 01:22N 25°33' W 079°40'1113.3
2014-Apr-07 00:33N 25°43' W 079°42'1313.3
2014-Apr-06 23:33N 25°54' W 079°51'1514.7
2014-Apr-06 22:33N 26°05' W 080°02'5 4.6
2014-Apr-06 21:31N 26°04' W 080°07'0 0.0
2014-Apr-06 20:25N 26°04' W 080°07'0 0.0
2014-Apr-06 19:33N 26°04' W 080°07'0 0.0
2014-Apr-06 18:27N 26°04' W 080°07'0 0.0
2014-Apr-06 17:32N 26°04' W 080°07'0 0.0
2014-Apr-06 16:29N 26°04' W 080°07'0 0.0
2014-Apr-06 15:19N 26°04' W 080°07'0 0.0
2014-Apr-06 14:31N 26°04' W 080°07'0 0.0
2014-Apr-06 13:22N 26°04' W 080°07'0 0.0
2014-Apr-06 12:33N 26°04' W 080°07'0 0.0
2014-Apr-06 11:24N 26°04' W 080°07'0 0.0
2014-Apr-06 10:32N 26°04' W 080°07'0 0.0
2014-Apr-06 09:29N 26°04' W 080°07'0 0.0
2014-Apr-06 08:32N 26°04' W 080°07'0 0.0
2014-Apr-06 07:31N 26°04' W 080°07'3 2.7
2014-Apr-06 06:33N 26°05' W 080°04'1212.5
2014-Apr-06 05:33N 25°53' W 080°03'9 9.0
2014-Apr-06 04:33N 25°46' W 080°10'0 0.1
2014-Apr-06 03:31N 25°46' W 080°10'0 0.0
2014-Apr-06 02:31N 25°46' W 080°10'0 0.0
2014-Apr-06 01:33N 25°46' W 080°10'0 0.0
2014-Apr-06 00:33N 25°46' W 080°10'0 0.0
2014-Apr-05 23:32N 25°46' W 080°10'0 0.0
2014-Apr-05 22:32N 25°46' W 080°10'0 0.0
2014-Apr-05 21:31N 25°46' W 080°10'0 0.0
2014-Apr-05 20:31N 25°46' W 080°10'0 0.0
2014-Apr-05 19:28N 25°46' W 080°10'0 0.0
2014-Apr-05 18:33N 25°46' W 080°10'0 0.0
2014-Apr-05 17:33N 25°46' W 080°10'0 0.0
2014-Apr-05 16:32N 25°46' W 080°10'0 0.0
2014-Apr-05 15:32N 25°46' W 080°10'0 0.0
2014-Apr-05 14:31N 25°46' W 080°10'0 0.0
2014-Apr-05 13:31N 25°46' W 080°10'0 0.0
2014-Apr-05 12:31N 25°46' W 080°10'0 0.0
2014-Apr-05 11:33N 25°46' W 080°10'0 0.0
2014-Apr-05 10:33N 25°46' W 080°10'0 0.0
2014-Apr-05 09:32N 25°46' W 080°10'0 0.0
2014-Apr-05 08:32N 25°46' W 080°10'0 0.0
2014-Apr-05 07:31N 25°46' W 080°10'0 0.0
2014-Apr-05 06:31N 25°46' W 080°10'0 0.0
2014-Apr-05 05:31N 25°46' W 080°10'0 0.0
2014-Apr-05 04:33N 25°46' W 080°10'0 0.0
2014-Apr-05 03:33N 25°46' W 080°10'0 0.0
2014-Apr-05 02:32N 25°46' W 080°10'0 0.0
2014-Apr-05 01:32N 25°46' W 080°10'0 0.0
2014-Apr-05 00:31N 25°46' W 080°10'0 0.0
2014-Apr-04 23:31N 25°46' W 080°10'0 0.0
2014-Apr-04 22:27N 25°46' W 080°10'0 0.0
2014-Apr-04 21:33N 25°46' W 080°10'0 0.0
2014-Apr-04 20:33N 25°46' W 080°10'0 0.0
2014-Apr-04 19:32N 25°46' W 080°10'0 0.0
2014-Apr-04 18:32N 25°46' W 080°10'0 0.3
2014-Apr-04 17:33N 25°46' W 080°10'0 0.0
2014-Apr-04 16:32N 25°46' W 080°10'0 0.0
2014-Apr-04 15:32N 25°46' W 080°10'  

Dump ship's entire track history

sailing weather and tide predictions

Seaboard Caribe — V2DV8 — position and weather